sensor_id;sensor_type;location;lat;lon;timestamp;P1;durP1;ratioP1;P2;durP2;ratioP2
21424;SDS011;10873;51.132;16.848;2024-02-21T00:00:50;6.80;;;2.97;;
21424;SDS011;10873;51.132;16.848;2024-02-21T00:03:37;6.55;;;3.05;;
21424;SDS011;10873;51.132;16.848;2024-02-21T00:06:04;5.47;;;2.95;;
21424;SDS011;10873;51.132;16.848;2024-02-21T00:08:30;8.13;;;3.00;;
21424;SDS011;10873;51.132;16.848;2024-02-21T00:10:56;8.40;;;2.88;;
21424;SDS011;10873;51.132;16.848;2024-02-21T00:13:22;8.88;;;3.55;;
21424;SDS011;10873;51.132;16.848;2024-02-21T00:15:48;7.30;;;2.92;;
21424;SDS011;10873;51.132;16.848;2024-02-21T00:18:14;9.55;;;3.22;;
21424;SDS011;10873;51.132;16.848;2024-02-21T00:20:40;6.57;;;3.03;;
21424;SDS011;10873;51.132;16.848;2024-02-21T00:23:07;9.60;;;3.28;;
21424;SDS011;10873;51.132;16.848;2024-02-21T00:25:33;8.52;;;3.20;;
21424;SDS011;10873;51.132;16.848;2024-02-21T00:27:59;5.18;;;2.58;;
21424;SDS011;10873;51.132;16.848;2024-02-21T00:30:25;7.20;;;2.92;;
21424;SDS011;10873;51.132;16.848;2024-02-21T00:32:52;7.22;;;3.33;;
21424;SDS011;10873;51.132;16.848;2024-02-21T00:35:18;8.23;;;3.17;;
21424;SDS011;10873;51.132;16.848;2024-02-21T00:37:44;8.13;;;3.20;;
21424;SDS011;10873;51.132;16.848;2024-02-21T00:40:11;8.45;;;3.35;;
21424;SDS011;10873;51.132;16.848;2024-02-21T00:42:38;8.27;;;3.50;;
21424;SDS011;10873;51.132;16.848;2024-02-21T00:45:04;9.27;;;3.47;;
21424;SDS011;10873;51.132;16.848;2024-02-21T00:47:32;8.80;;;3.55;;
21424;SDS011;10873;51.132;16.848;2024-02-21T00:49:58;8.55;;;3.53;;
21424;SDS011;10873;51.132;16.848;2024-02-21T00:52:24;8.23;;;3.13;;
21424;SDS011;10873;51.132;16.848;2024-02-21T00:54:50;9.07;;;3.47;;
21424;SDS011;10873;51.132;16.848;2024-02-21T00:57:17;9.45;;;3.08;;
21424;SDS011;10873;51.132;16.848;2024-02-21T00:59:43;7.28;;;3.13;;
21424;SDS011;10873;51.132;16.848;2024-02-21T01:02:09;10.25;;;3.65;;
21424;SDS011;10873;51.132;16.848;2024-02-21T01:04:38;9.18;;;3.40;;
21424;SDS011;10873;51.132;16.848;2024-02-21T01:07:07;6.82;;;3.03;;
21424;SDS011;10873;51.132;16.848;2024-02-21T01:09:33;8.65;;;3.38;;
21424;SDS011;10873;51.132;16.848;2024-02-21T01:12:01;7.85;;;3.42;;
21424;SDS011;10873;51.132;16.848;2024-02-21T01:14:28;5.95;;;3.05;;
21424;SDS011;10873;51.132;16.848;2024-02-21T01:16:55;7.75;;;3.40;;
21424;SDS011;10873;51.132;16.848;2024-02-21T01:19:22;10.82;;;3.60;;
21424;SDS011;10873;51.132;16.848;2024-02-21T01:21:49;6.60;;;2.60;;
21424;SDS011;10873;51.132;16.848;2024-02-21T01:24:16;6.97;;;2.92;;
21424;SDS011;10873;51.132;16.848;2024-02-21T01:27:18;8.75;;;3.30;;
21424;SDS011;10873;51.132;16.848;2024-02-21T01:30:29;10.00;;;3.33;;
21424;SDS011;10873;51.132;16.848;2024-02-21T01:32:55;7.45;;;2.90;;
21424;SDS011;10873;51.132;16.848;2024-02-21T01:35:21;6.82;;;2.85;;
21424;SDS011;10873;51.132;16.848;2024-02-21T01:37:47;8.02;;;2.90;;
21424;SDS011;10873;51.132;16.848;2024-02-21T01:40:14;6.82;;;3.20;;
21424;SDS011;10873;51.132;16.848;2024-02-21T01:42:40;6.97;;;3.00;;
21424;SDS011;10873;51.132;16.848;2024-02-21T01:45:07;7.72;;;2.90;;
21424;SDS011;10873;51.132;16.848;2024-02-21T01:47:34;7.60;;;2.75;;
21424;SDS011;10873;51.132;16.848;2024-02-21T01:50:01;7.78;;;2.65;;
21424;SDS011;10873;51.132;16.848;2024-02-21T01:52:28;6.38;;;2.70;;
21424;SDS011;10873;51.132;16.848;2024-02-21T01:54:54;6.55;;;2.63;;
21424;SDS011;10873;51.132;16.848;2024-02-21T01:57:21;6.18;;;2.85;;
21424;SDS011;10873;51.132;16.848;2024-02-21T01:59:47;6.72;;;2.90;;
21424;SDS011;10873;51.132;16.848;2024-02-21T02:02:14;10.35;;;3.35;;
21424;SDS011;10873;51.132;16.848;2024-02-21T02:04:42;8.82;;;3.50;;
21424;SDS011;10873;51.132;16.848;2024-02-21T02:07:09;8.00;;;3.75;;
21424;SDS011;10873;51.132;16.848;2024-02-21T02:09:35;9.38;;;4.57;;
21424;SDS011;10873;51.132;16.848;2024-02-21T02:12:01;9.52;;;5.50;;
21424;SDS011;10873;51.132;16.848;2024-02-21T02:14:28;11.77;;;5.57;;
21424;SDS011;10873;51.132;16.848;2024-02-21T02:16:54;12.32;;;5.60;;
21424;SDS011;10873;51.132;16.848;2024-02-21T02:19:20;10.27;;;5.47;;
21424;SDS011;10873;51.132;16.848;2024-02-21T02:21:51;9.45;;;4.55;;
21424;SDS011;10873;51.132;16.848;2024-02-21T02:24:22;10.93;;;5.32;;
21424;SDS011;10873;51.132;16.848;2024-02-21T02:26:51;10.77;;;4.93;;
21424;SDS011;10873;51.132;16.848;2024-02-21T02:29:17;10.82;;;4.65;;
21424;SDS011;10873;51.132;16.848;2024-02-21T02:31:43;9.10;;;4.13;;
21424;SDS011;10873;51.132;16.848;2024-02-21T02:34:09;8.65;;;4.20;;
21424;SDS011;10873;51.132;16.848;2024-02-21T02:36:35;9.02;;;4.30;;
21424;SDS011;10873;51.132;16.848;2024-02-21T02:39:01;8.75;;;4.07;;
21424;SDS011;10873;51.132;16.848;2024-02-21T02:41:28;7.28;;;3.83;;
21424;SDS011;10873;51.132;16.848;2024-02-21T02:43:54;7.65;;;3.50;;
21424;SDS011;10873;51.132;16.848;2024-02-21T02:46:20;7.72;;;3.50;;
21424;SDS011;10873;51.132;16.848;2024-02-21T02:48:46;7.72;;;3.58;;
21424;SDS011;10873;51.132;16.848;2024-02-21T02:51:12;7.60;;;3.42;;
21424;SDS011;10873;51.132;16.848;2024-02-21T02:53:38;7.93;;;3.63;;
21424;SDS011;10873;51.132;16.848;2024-02-21T02:56:05;9.95;;;3.42;;
21424;SDS011;10873;51.132;16.848;2024-02-21T02:58:31;6.75;;;3.25;;
21424;SDS011;10873;51.132;16.848;2024-02-21T03:00:57;6.88;;;3.28;;
21424;SDS011;10873;51.132;16.848;2024-02-21T03:03:23;8.07;;;2.90;;
21424;SDS011;10873;51.132;16.848;2024-02-21T03:05:50;5.47;;;2.83;;
21424;SDS011;10873;51.132;16.848;2024-02-21T03:08:16;6.65;;;3.10;;
21424;SDS011;10873;51.132;16.848;2024-02-21T03:10:42;7.30;;;3.10;;
21424;SDS011;10873;51.132;16.848;2024-02-21T03:13:08;7.93;;;3.33;;
21424;SDS011;10873;51.132;16.848;2024-02-21T03:15:34;6.72;;;3.03;;
21424;SDS011;10873;51.132;16.848;2024-02-21T03:18:00;8.02;;;3.25;;
21424;SDS011;10873;51.132;16.848;2024-02-21T03:20:26;7.20;;;3.05;;
21424;SDS011;10873;51.132;16.848;2024-02-21T03:22:52;5.82;;;2.70;;
21424;SDS011;10873;51.132;16.848;2024-02-21T03:25:19;6.78;;;3.35;;
21424;SDS011;10873;51.132;16.848;2024-02-21T03:27:45;8.95;;;3.65;;
21424;SDS011;10873;51.132;16.848;2024-02-21T03:30:12;7.78;;;3.33;;
21424;SDS011;10873;51.132;16.848;2024-02-21T03:32:39;8.82;;;3.05;;
21424;SDS011;10873;51.132;16.848;2024-02-21T03:35:05;7.90;;;3.45;;
21424;SDS011;10873;51.132;16.848;2024-02-21T03:37:31;6.00;;;2.95;;
21424;SDS011;10873;51.132;16.848;2024-02-21T03:39:57;7.30;;;3.30;;
21424;SDS011;10873;51.132;16.848;2024-02-21T03:42:23;5.90;;;3.08;;
21424;SDS011;10873;51.132;16.848;2024-02-21T03:44:50;6.35;;;3.25;;
21424;SDS011;10873;51.132;16.848;2024-02-21T03:47:16;6.72;;;3.08;;
21424;SDS011;10873;51.132;16.848;2024-02-21T03:49:43;7.55;;;3.47;;
21424;SDS011;10873;51.132;16.848;2024-02-21T03:52:09;6.97;;;3.22;;
21424;SDS011;10873;51.132;16.848;2024-02-21T03:54:36;5.45;;;3.13;;
21424;SDS011;10873;51.132;16.848;2024-02-21T03:57:02;6.70;;;3.05;;
21424;SDS011;10873;51.132;16.848;2024-02-21T03:59:28;6.05;;;3.00;;
21424;SDS011;10873;51.132;16.848;2024-02-21T04:01:54;6.07;;;2.78;;
21424;SDS011;10873;51.132;16.848;2024-02-21T04:04:21;7.90;;;2.97;;
21424;SDS011;10873;51.132;16.848;2024-02-21T04:06:47;6.43;;;3.00;;
21424;SDS011;10873;51.132;16.848;2024-02-21T04:09:14;4.35;;;2.60;;
21424;SDS011;10873;51.132;16.848;2024-02-21T04:11:40;5.35;;;2.58;;
21424;SDS011;10873;51.132;16.848;2024-02-21T04:14:06;5.75;;;2.70;;
21424;SDS011;10873;51.132;16.848;2024-02-21T04:16:32;5.63;;;2.88;;
21424;SDS011;10873;51.132;16.848;2024-02-21T04:18:59;6.18;;;2.60;;
21424;SDS011;10873;51.132;16.848;2024-02-21T04:21:27;6.20;;;2.90;;
21424;SDS011;10873;51.132;16.848;2024-02-21T04:23:54;5.93;;;2.78;;
21424;SDS011;10873;51.132;16.848;2024-02-21T04:26:20;5.22;;;2.25;;
21424;SDS011;10873;51.132;16.848;2024-02-21T04:28:46;5.75;;;2.80;;
21424;SDS011;10873;51.132;16.848;2024-02-21T04:31:12;5.60;;;2.50;;
21424;SDS011;10873;51.132;16.848;2024-02-21T04:33:38;6.13;;;2.55;;
21424;SDS011;10873;51.132;16.848;2024-02-21T04:36:04;5.40;;;2.45;;
21424;SDS011;10873;51.132;16.848;2024-02-21T04:38:31;6.22;;;2.70;;
21424;SDS011;10873;51.132;16.848;2024-02-21T04:40:57;6.05;;;2.58;;
21424;SDS011;10873;51.132;16.848;2024-02-21T04:43:24;5.22;;;2.60;;
21424;SDS011;10873;51.132;16.848;2024-02-21T04:45:50;6.00;;;3.00;;
21424;SDS011;10873;51.132;16.848;2024-02-21T04:48:16;6.68;;;2.80;;
21424;SDS011;10873;51.132;16.848;2024-02-21T04:50:42;4.45;;;2.38;;
21424;SDS011;10873;51.132;16.848;2024-02-21T04:53:08;8.48;;;2.80;;
21424;SDS011;10873;51.132;16.848;2024-02-21T04:55:34;4.88;;;2.72;;
21424;SDS011;10873;51.132;16.848;2024-02-21T04:58:01;5.25;;;2.33;;
21424;SDS011;10873;51.132;16.848;2024-02-21T05:00:27;5.03;;;2.50;;
21424;SDS011;10873;51.132;16.848;2024-02-21T05:02:53;6.28;;;2.75;;
21424;SDS011;10873;51.132;16.848;2024-02-21T05:05:19;5.55;;;2.45;;
21424;SDS011;10873;51.132;16.848;2024-02-21T05:07:46;6.55;;;2.83;;
21424;SDS011;10873;51.132;16.848;2024-02-21T05:10:12;5.68;;;2.70;;
21424;SDS011;10873;51.132;16.848;2024-02-21T05:12:38;6.20;;;2.50;;
21424;SDS011;10873;51.132;16.848;2024-02-21T05:15:05;5.30;;;2.53;;
21424;SDS011;10873;51.132;16.848;2024-02-21T05:17:32;6.80;;;2.83;;
21424;SDS011;10873;51.132;16.848;2024-02-21T05:19:58;5.65;;;2.42;;
21424;SDS011;10873;51.132;16.848;2024-02-21T05:22:24;4.72;;;2.30;;
21424;SDS011;10873;51.132;16.848;2024-02-21T05:24:50;4.40;;;2.28;;
21424;SDS011;10873;51.132;16.848;2024-02-21T05:27:16;5.75;;;2.70;;
21424;SDS011;10873;51.132;16.848;2024-02-21T05:29:42;5.75;;;2.30;;
21424;SDS011;10873;51.132;16.848;2024-02-21T05:32:09;5.93;;;2.53;;
21424;SDS011;10873;51.132;16.848;2024-02-21T05:34:35;7.15;;;2.47;;
21424;SDS011;10873;51.132;16.848;2024-02-21T05:37:01;5.18;;;2.53;;
21424;SDS011;10873;51.132;16.848;2024-02-21T05:39:27;3.88;;;2.55;;
21424;SDS011;10873;51.132;16.848;2024-02-21T05:41:54;5.57;;;2.33;;
21424;SDS011;10873;51.132;16.848;2024-02-21T05:44:20;5.07;;;2.17;;
21424;SDS011;10873;51.132;16.848;2024-02-21T05:46:47;5.70;;;2.58;;
21424;SDS011;10873;51.132;16.848;2024-02-21T05:49:14;8.52;;;2.33;;
21424;SDS011;10873;51.132;16.848;2024-02-21T05:51:40;4.38;;;2.20;;
21424;SDS011;10873;51.132;16.848;2024-02-21T05:54:06;6.10;;;2.53;;
21424;SDS011;10873;51.132;16.848;2024-02-21T05:56:32;6.50;;;2.22;;
21424;SDS011;10873;51.132;16.848;2024-02-21T05:58:59;3.80;;;2.10;;
21424;SDS011;10873;51.132;16.848;2024-02-21T06:01:25;5.68;;;2.50;;
21424;SDS011;10873;51.132;16.848;2024-02-21T06:03:51;5.55;;;2.33;;
21424;SDS011;10873;51.132;16.848;2024-02-21T06:06:18;4.65;;;2.60;;
21424;SDS011;10873;51.132;16.848;2024-02-21T06:08:44;5.50;;;2.60;;
21424;SDS011;10873;51.132;16.848;2024-02-21T06:11:10;5.88;;;2.58;;
21424;SDS011;10873;51.132;16.848;2024-02-21T06:13:38;4.88;;;2.75;;
21424;SDS011;10873;51.132;16.848;2024-02-21T06:16:06;7.22;;;3.05;;
21424;SDS011;10873;51.132;16.848;2024-02-21T06:18:32;7.55;;;2.92;;
21424;SDS011;10873;51.132;16.848;2024-02-21T06:20:59;5.75;;;2.70;;
21424;SDS011;10873;51.132;16.848;2024-02-21T06:23:26;7.82;;;3.08;;
21424;SDS011;10873;51.132;16.848;2024-02-21T06:25:52;7.30;;;2.90;;
21424;SDS011;10873;51.132;16.848;2024-02-21T06:28:18;7.03;;;3.08;;
21424;SDS011;10873;51.132;16.848;2024-02-21T06:30:44;6.50;;;3.40;;
21424;SDS011;10873;51.132;16.848;2024-02-21T06:33:10;6.63;;;3.17;;
21424;SDS011;10873;51.132;16.848;2024-02-21T06:35:36;6.10;;;3.17;;
21424;SDS011;10873;51.132;16.848;2024-02-21T06:38:06;6.57;;;3.03;;
21424;SDS011;10873;51.132;16.848;2024-02-21T06:40:33;8.55;;;3.60;;
21424;SDS011;10873;51.132;16.848;2024-02-21T06:43:04;7.32;;;3.00;;
21424;SDS011;10873;51.132;16.848;2024-02-21T06:45:30;8.02;;;3.30;;
21424;SDS011;10873;51.132;16.848;2024-02-21T06:47:56;6.68;;;3.00;;
21424;SDS011;10873;51.132;16.848;2024-02-21T06:50:22;6.30;;;3.33;;
21424;SDS011;10873;51.132;16.848;2024-02-21T06:52:48;7.90;;;3.47;;
21424;SDS011;10873;51.132;16.848;2024-02-21T06:55:14;7.65;;;3.08;;
21424;SDS011;10873;51.132;16.848;2024-02-21T06:57:42;8.05;;;3.40;;
21424;SDS011;10873;51.132;16.848;2024-02-21T07:00:08;8.50;;;3.40;;
21424;SDS011;10873;51.132;16.848;2024-02-21T07:02:35;6.57;;;3.17;;
21424;SDS011;10873;51.132;16.848;2024-02-21T07:05:01;6.75;;;3.40;;
21424;SDS011;10873;51.132;16.848;2024-02-21T07:07:28;9.88;;;3.60;;
21424;SDS011;10873;51.132;16.848;2024-02-21T07:09:55;8.88;;;3.22;;
21424;SDS011;10873;51.132;16.848;2024-02-21T07:12:21;6.75;;;3.55;;
21424;SDS011;10873;51.132;16.848;2024-02-21T07:14:47;6.57;;;3.13;;
21424;SDS011;10873;51.132;16.848;2024-02-21T07:17:13;7.32;;;3.55;;
21424;SDS011;10873;51.132;16.848;2024-02-21T07:19:40;7.90;;;3.60;;
21424;SDS011;10873;51.132;16.848;2024-02-21T07:22:05;7.68;;;3.45;;
21424;SDS011;10873;51.132;16.848;2024-02-21T07:24:32;8.70;;;3.40;;
21424;SDS011;10873;51.132;16.848;2024-02-21T07:26:58;7.35;;;3.30;;
21424;SDS011;10873;51.132;16.848;2024-02-21T07:29:29;6.35;;;3.40;;
21424;SDS011;10873;51.132;16.848;2024-02-21T07:31:56;8.65;;;3.30;;
21424;SDS011;10873;51.132;16.848;2024-02-21T07:34:22;7.85;;;3.33;;
21424;SDS011;10873;51.132;16.848;2024-02-21T07:36:48;6.35;;;3.45;;
21424;SDS011;10873;51.132;16.848;2024-02-21T07:39:14;9.35;;;3.35;;
21424;SDS011;10873;51.132;16.848;2024-02-21T07:41:41;6.90;;;3.17;;
21424;SDS011;10873;51.132;16.848;2024-02-21T07:44:10;11.48;;;3.30;;
21424;SDS011;10873;51.132;16.848;2024-02-21T07:46:36;7.07;;;3.80;;
21424;SDS011;10873;51.132;16.848;2024-02-21T07:49:03;7.05;;;3.17;;
21424;SDS011;10873;51.132;16.848;2024-02-21T07:51:29;6.55;;;3.28;;
21424;SDS011;10873;51.132;16.848;2024-02-21T07:53:55;6.95;;;3.40;;
21424;SDS011;10873;51.132;16.848;2024-02-21T07:56:21;9.45;;;3.53;;
21424;SDS011;10873;51.132;16.848;2024-02-21T07:58:47;8.20;;;3.58;;
21424;SDS011;10873;51.132;16.848;2024-02-21T08:01:17;7.25;;;3.08;;
21424;SDS011;10873;51.132;16.848;2024-02-21T08:03:44;7.18;;;2.88;;
21424;SDS011;10873;51.132;16.848;2024-02-21T08:06:12;6.65;;;3.38;;
21424;SDS011;10873;51.132;16.848;2024-02-21T08:08:38;6.18;;;3.15;;
21424;SDS011;10873;51.132;16.848;2024-02-21T08:11:04;5.80;;;3.00;;
21424;SDS011;10873;51.132;16.848;2024-02-21T08:13:30;6.10;;;3.20;;
21424;SDS011;10873;51.132;16.848;2024-02-21T08:15:57;6.72;;;3.20;;
21424;SDS011;10873;51.132;16.848;2024-02-21T08:18:23;7.93;;;3.30;;
21424;SDS011;10873;51.132;16.848;2024-02-21T08:20:49;6.03;;;3.28;;
21424;SDS011;10873;51.132;16.848;2024-02-21T08:23:16;7.47;;;3.67;;
21424;SDS011;10873;51.132;16.848;2024-02-21T08:25:43;6.07;;;3.22;;
21424;SDS011;10873;51.132;16.848;2024-02-21T08:28:09;8.70;;;3.55;;
21424;SDS011;10873;51.132;16.848;2024-02-21T08:30:35;9.00;;;3.45;;
21424;SDS011;10873;51.132;16.848;2024-02-21T08:33:01;7.85;;;3.85;;
21424;SDS011;10873;51.132;16.848;2024-02-21T08:35:29;7.40;;;3.40;;
21424;SDS011;10873;51.132;16.848;2024-02-21T08:37:55;7.57;;;3.75;;
21424;SDS011;10873;51.132;16.848;2024-02-21T08:40:22;8.77;;;3.45;;
21424;SDS011;10873;51.132;16.848;2024-02-21T08:42:48;8.32;;;3.50;;
21424;SDS011;10873;51.132;16.848;2024-02-21T08:45:15;7.28;;;3.72;;
21424;SDS011;10873;51.132;16.848;2024-02-21T08:47:41;6.95;;;3.20;;
21424;SDS011;10873;51.132;16.848;2024-02-21T08:50:07;7.93;;;3.70;;
21424;SDS011;10873;51.132;16.848;2024-02-21T08:52:37;8.27;;;3.47;;
21424;SDS011;10873;51.132;16.848;2024-02-21T08:55:03;8.48;;;3.70;;
21424;SDS011;10873;51.132;16.848;2024-02-21T08:57:30;6.97;;;3.47;;
21424;SDS011;10873;51.132;16.848;2024-02-21T09:00:03;6.93;;;3.03;;
21424;SDS011;10873;51.132;16.848;2024-02-21T09:02:35;6.20;;;3.53;;
21424;SDS011;10873;51.132;16.848;2024-02-21T09:05:03;7.00;;;3.70;;
21424;SDS011;10873;51.132;16.848;2024-02-21T09:07:30;7.43;;;3.60;;
21424;SDS011;10873;51.132;16.848;2024-02-21T09:09:56;5.20;;;2.72;;
21424;SDS011;10873;51.132;16.848;2024-02-21T09:12:22;7.22;;;3.40;;
21424;SDS011;10873;51.132;16.848;2024-02-21T09:14:49;5.78;;;3.20;;
21424;SDS011;10873;51.132;16.848;2024-02-21T09:17:16;8.40;;;3.42;;
21424;SDS011;10873;51.132;16.848;2024-02-21T09:19:46;5.65;;;3.15;;
21424;SDS011;10873;51.132;16.848;2024-02-21T09:22:12;6.03;;;3.30;;
21424;SDS011;10873;51.132;16.848;2024-02-21T09:24:38;7.90;;;3.30;;
21424;SDS011;10873;51.132;16.848;2024-02-21T09:27:04;8.00;;;3.33;;
21424;SDS011;10873;51.132;16.848;2024-02-21T09:29:31;7.13;;;3.20;;
21424;SDS011;10873;51.132;16.848;2024-02-21T09:31:59;7.20;;;2.95;;
21424;SDS011;10873;51.132;16.848;2024-02-21T09:34:25;7.18;;;3.03;;
21424;SDS011;10873;51.132;16.848;2024-02-21T09:36:53;5.78;;;3.05;;
21424;SDS011;10873;51.132;16.848;2024-02-21T09:39:19;7.53;;;3.13;;
21424;SDS011;10873;51.132;16.848;2024-02-21T09:41:47;6.88;;;3.28;;
21424;SDS011;10873;51.132;16.848;2024-02-21T09:44:21;6.53;;;3.05;;
21424;SDS011;10873;51.132;16.848;2024-02-21T09:46:52;5.97;;;3.28;;
21424;SDS011;10873;51.132;16.848;2024-02-21T09:49:30;7.32;;;3.40;;
21424;SDS011;10873;51.132;16.848;2024-02-21T09:51:58;7.72;;;3.33;;
21424;SDS011;10873;51.132;16.848;2024-02-21T09:54:28;6.32;;;3.38;;
21424;SDS011;10873;51.132;16.848;2024-02-21T09:56:56;5.82;;;3.15;;
21424;SDS011;10873;51.132;16.848;2024-02-21T09:59:22;7.97;;;3.13;;
21424;SDS011;10873;51.132;16.848;2024-02-21T10:01:49;8.32;;;3.20;;
21424;SDS011;10873;51.132;16.848;2024-02-21T10:04:16;6.25;;;3.25;;
21424;SDS011;10873;51.132;16.848;2024-02-21T10:06:44;8.20;;;3.75;;
21424;SDS011;10873;51.132;16.848;2024-02-21T10:09:19;7.95;;;3.33;;
21424;SDS011;10873;51.132;16.848;2024-02-21T10:11:46;7.03;;;3.28;;
21424;SDS011;10873;51.132;16.848;2024-02-21T10:14:12;9.63;;;3.70;;
21424;SDS011;10873;51.132;16.848;2024-02-21T10:16:39;7.28;;;3.50;;
21424;SDS011;10873;51.132;16.848;2024-02-21T10:19:05;10.30;;;3.72;;
21424;SDS011;10873;51.132;16.848;2024-02-21T10:21:32;8.15;;;3.90;;
21424;SDS011;10873;51.132;16.848;2024-02-21T10:23:58;6.32;;;3.15;;
21424;SDS011;10873;51.132;16.848;2024-02-21T10:26:24;8.20;;;3.50;;
21424;SDS011;10873;51.132;16.848;2024-02-21T10:28:50;7.75;;;3.47;;
21424;SDS011;10873;51.132;16.848;2024-02-21T10:31:23;6.00;;;3.05;;
21424;SDS011;10873;51.132;16.848;2024-02-21T10:33:53;6.88;;;3.20;;
21424;SDS011;10873;51.132;16.848;2024-02-21T10:36:21;7.60;;;3.40;;
21424;SDS011;10873;51.132;16.848;2024-02-21T10:38:47;8.63;;;3.47;;
21424;SDS011;10873;51.132;16.848;2024-02-21T10:41:14;6.93;;;3.47;;
21424;SDS011;10873;51.132;16.848;2024-02-21T10:43:43;6.47;;;3.47;;
21424;SDS011;10873;51.132;16.848;2024-02-21T10:46:14;7.65;;;3.35;;
21424;SDS011;10873;51.132;16.848;2024-02-21T10:48:44;6.13;;;3.10;;
21424;SDS011;10873;51.132;16.848;2024-02-21T10:51:14;5.47;;;3.00;;
21424;SDS011;10873;51.132;16.848;2024-02-21T10:53:44;7.38;;;3.35;;
21424;SDS011;10873;51.132;16.848;2024-02-21T10:56:20;7.20;;;2.92;;
21424;SDS011;10873;51.132;16.848;2024-02-21T10:58:50;7.93;;;3.90;;
21424;SDS011;10873;51.132;16.848;2024-02-21T11:01:18;8.82;;;3.53;;
21424;SDS011;10873;51.132;16.848;2024-02-21T11:03:44;5.93;;;2.78;;
21424;SDS011;10873;51.132;16.848;2024-02-21T11:06:12;6.97;;;3.17;;
21424;SDS011;10873;51.132;16.848;2024-02-21T11:08:39;5.47;;;2.83;;
21424;SDS011;10873;51.132;16.848;2024-02-21T11:11:05;6.72;;;3.13;;
21424;SDS011;10873;51.132;16.848;2024-02-21T11:13:32;8.05;;;3.25;;
21424;SDS011;10873;51.132;16.848;2024-02-21T11:16:07;5.10;;;3.00;;
21424;SDS011;10873;51.132;16.848;2024-02-21T11:18:34;7.07;;;2.95;;
21424;SDS011;10873;51.132;16.848;2024-02-21T11:21:01;6.13;;;3.00;;
21424;SDS011;10873;51.132;16.848;2024-02-21T11:23:28;6.05;;;2.92;;
21424;SDS011;10873;51.132;16.848;2024-02-21T11:26:03;6.07;;;2.72;;
21424;SDS011;10873;51.132;16.848;2024-02-21T11:28:30;4.55;;;2.90;;
21424;SDS011;10873;51.132;16.848;2024-02-21T11:31:05;5.40;;;3.00;;
21424;SDS011;10873;51.132;16.848;2024-02-21T11:33:32;5.20;;;2.90;;
21424;SDS011;10873;51.132;16.848;2024-02-21T11:35:59;5.70;;;3.08;;
21424;SDS011;10873;51.132;16.848;2024-02-21T11:38:25;6.22;;;3.33;;
21424;SDS011;10873;51.132;16.848;2024-02-21T11:40:51;5.07;;;2.70;;
21424;SDS011;10873;51.132;16.848;2024-02-21T11:43:17;6.25;;;3.22;;
21424;SDS011;10873;51.132;16.848;2024-02-21T11:45:43;6.80;;;2.83;;
21424;SDS011;10873;51.132;16.848;2024-02-21T11:48:10;5.07;;;2.80;;
21424;SDS011;10873;51.132;16.848;2024-02-21T11:50:36;6.20;;;2.90;;
21424;SDS011;10873;51.132;16.848;2024-02-21T11:53:05;6.50;;;3.08;;
21424;SDS011;10873;51.132;16.848;2024-02-21T11:55:31;7.03;;;2.95;;
21424;SDS011;10873;51.132;16.848;2024-02-21T11:57:57;4.95;;;2.80;;
21424;SDS011;10873;51.132;16.848;2024-02-21T12:00:25;5.75;;;2.80;;
21424;SDS011;10873;51.132;16.848;2024-02-21T12:02:51;5.80;;;3.08;;
21424;SDS011;10873;51.132;16.848;2024-02-21T12:05:19;6.03;;;3.28;;
21424;SDS011;10873;51.132;16.848;2024-02-21T12:07:45;5.53;;;2.70;;
21424;SDS011;10873;51.132;16.848;2024-02-21T12:10:12;5.15;;;2.70;;
21424;SDS011;10873;51.132;16.848;2024-02-21T12:12:38;4.88;;;2.78;;
21424;SDS011;10873;51.132;16.848;2024-02-21T12:15:05;5.07;;;3.03;;
21424;SDS011;10873;51.132;16.848;2024-02-21T12:17:32;5.50;;;3.17;;
21424;SDS011;10873;51.132;16.848;2024-02-21T12:20:00;5.65;;;2.75;;
21424;SDS011;10873;51.132;16.848;2024-02-21T12:22:27;6.45;;;2.97;;
21424;SDS011;10873;51.132;16.848;2024-02-21T12:24:53;5.22;;;2.72;;
21424;SDS011;10873;51.132;16.848;2024-02-21T12:27:20;5.55;;;2.92;;
21424;SDS011;10873;51.132;16.848;2024-02-21T12:29:47;4.68;;;2.78;;
21424;SDS011;10873;51.132;16.848;2024-02-21T12:32:13;5.18;;;2.88;;
21424;SDS011;10873;51.132;16.848;2024-02-21T12:34:39;5.05;;;2.80;;
21424;SDS011;10873;51.132;16.848;2024-02-21T12:37:05;4.53;;;2.70;;
21424;SDS011;10873;51.132;16.848;2024-02-21T12:39:33;4.60;;;2.65;;
21424;SDS011;10873;51.132;16.848;2024-02-21T12:41:59;4.50;;;2.63;;
21424;SDS011;10873;51.132;16.848;2024-02-21T12:44:26;3.95;;;2.67;;
21424;SDS011;10873;51.132;16.848;2024-02-21T12:46:52;4.53;;;3.00;;
21424;SDS011;10873;51.132;16.848;2024-02-21T12:49:19;4.63;;;2.63;;
21424;SDS011;10873;51.132;16.848;2024-02-21T12:51:45;4.28;;;2.40;;
21424;SDS011;10873;51.132;16.848;2024-02-21T12:54:14;4.25;;;2.67;;
21424;SDS011;10873;51.132;16.848;2024-02-21T12:56:41;5.03;;;2.85;;
21424;SDS011;10873;51.132;16.848;2024-02-21T12:59:07;5.13;;;2.97;;
21424;SDS011;10873;51.132;16.848;2024-02-21T13:01:34;5.40;;;2.97;;
21424;SDS011;10873;51.132;16.848;2024-02-21T13:04:00;5.53;;;2.70;;
21424;SDS011;10873;51.132;16.848;2024-02-21T13:06:27;4.55;;;2.65;;
21424;SDS011;10873;51.132;16.848;2024-02-21T13:08:53;3.83;;;2.55;;
21424;SDS011;10873;51.132;16.848;2024-02-21T13:11:19;3.88;;;2.60;;
21424;SDS011;10873;51.132;16.848;2024-02-21T13:13:46;4.57;;;2.50;;
21424;SDS011;10873;51.132;16.848;2024-02-21T13:16:12;4.13;;;2.63;;
21424;SDS011;10873;51.132;16.848;2024-02-21T13:18:38;5.90;;;2.88;;
21424;SDS011;10873;51.132;16.848;2024-02-21T13:21:05;6.35;;;2.83;;
21424;SDS011;10873;51.132;16.848;2024-02-21T13:23:31;4.13;;;2.50;;
21424;SDS011;10873;51.132;16.848;2024-02-21T13:25:58;4.00;;;2.53;;
21424;SDS011;10873;51.132;16.848;2024-02-21T13:28:24;4.38;;;2.80;;
21424;SDS011;10873;51.132;16.848;2024-02-21T13:30:51;4.82;;;2.70;;
21424;SDS011;10873;51.132;16.848;2024-02-21T13:33:17;4.57;;;3.20;;
21424;SDS011;10873;51.132;16.848;2024-02-21T13:35:43;5.40;;;2.50;;
21424;SDS011;10873;51.132;16.848;2024-02-21T13:38:09;5.70;;;2.75;;
21424;SDS011;10873;51.132;16.848;2024-02-21T13:40:36;4.45;;;2.65;;
21424;SDS011;10873;51.132;16.848;2024-02-21T13:43:02;4.47;;;2.42;;
21424;SDS011;10873;51.132;16.848;2024-02-21T13:45:28;4.20;;;2.38;;
21424;SDS011;10873;51.132;16.848;2024-02-21T13:47:56;3.83;;;2.35;;
21424;SDS011;10873;51.132;16.848;2024-02-21T13:50:23;5.63;;;3.00;;
21424;SDS011;10873;51.132;16.848;2024-02-21T13:52:54;5.38;;;2.72;;
21424;SDS011;10873;51.132;16.848;2024-02-21T13:55:20;5.53;;;2.88;;
21424;SDS011;10873;51.132;16.848;2024-02-21T13:57:47;5.15;;;2.55;;
21424;SDS011;10873;51.132;16.848;2024-02-21T14:00:14;4.63;;;2.38;;
21424;SDS011;10873;51.132;16.848;2024-02-21T14:02:41;4.22;;;2.58;;
21424;SDS011;10873;51.132;16.848;2024-02-21T14:05:08;5.30;;;2.53;;
21424;SDS011;10873;51.132;16.848;2024-02-21T14:07:34;6.18;;;2.80;;
21424;SDS011;10873;51.132;16.848;2024-02-21T14:10:00;5.45;;;2.85;;
21424;SDS011;10873;51.132;16.848;2024-02-21T14:12:26;5.30;;;2.55;;
21424;SDS011;10873;51.132;16.848;2024-02-21T14:14:52;5.57;;;2.80;;
21424;SDS011;10873;51.132;16.848;2024-02-21T14:17:18;6.15;;;2.85;;
21424;SDS011;10873;51.132;16.848;2024-02-21T14:19:45;4.32;;;2.50;;
21424;SDS011;10873;51.132;16.848;2024-02-21T14:22:12;5.28;;;2.80;;
21424;SDS011;10873;51.132;16.848;2024-02-21T14:24:38;4.10;;;2.67;;
21424;SDS011;10873;51.132;16.848;2024-02-21T14:27:04;4.97;;;2.60;;
21424;SDS011;10873;51.132;16.848;2024-02-21T14:29:30;4.85;;;2.58;;
21424;SDS011;10873;51.132;16.848;2024-02-21T14:31:56;5.68;;;3.00;;